Lone Star State — WLSY — position and weather

sailwx.info

Track history (hours):
 
Tides and Currents Weather Stations Pressure Air Temp Water Temp Dewpoint Dewpoint Depression Visibility Wind Speed Wind Dir Waves Ship Positions

Lone Star State

Owner: Crowley Petroleum Services, Inc., Jacksonville, FL. More information available from US FCC via Universal Licensing System and Coast Guard Vessel Documentation Center.

Last reported at 2017-Nov-17 14:14 UTC. Time now 2017-Nov-20 17:11 UTC.
Position N 29°34' W 093°42'.

Length 186 m; draft 8.8 m.

Type: Tanker. MMSI: 367633000.

Date/timePositionNaut miles runAvg speedWind from/ knotsBaromVisibWave heightAir tempDewpointWater temp
2017-Nov-17 14:14N 29°34' W 093°42'  
2017-Nov-14 22:45N 25°13' W 080°03'512.7
2017-Nov-14 22:22N 25°18' W 080°02'412.6
2017-Nov-14 22:00N 25°23' W 080°01'713.0
2017-Nov-14 21:30N 25°29' W 080°01'612.9
2017-Nov-14 21:00N 25°36' W 080°00'612.6
2017-Nov-14 20:30N 25°42' W 080°01'612.5
2017-Nov-14 20:00N 25°48' W 080°01'612.8
2017-Nov-14 19:30N 25°55' W 080°01'612.6
2017-Nov-14 19:00N 26°01' W 080°01'612.8
2017-Nov-14 18:30N 26°07' W 080°00'713.7
2017-Nov-14 18:00N 26°14' W 079°59'713.8
2017-Nov-14 17:30N 26°21' W 079°59'713.4
2017-Nov-14 17:01N 26°28' W 079°58'713.7
2017-Nov-14 16:31N 26°34' W 079°57'714.9
2017-Nov-14 16:00N 26°42' W 079°56'714.5
2017-Nov-14 15:30N 26°49' W 079°55'612.9
2017-Nov-14 15:00N 26°55' W 079°55'612.9
2017-Nov-14 14:30N 27°02' W 079°54'  
2017-Nov-11 07:39N 26°20' W 079°49'215.7
2017-Nov-11 07:30N 26°18' W 079°49'815.7
2017-Nov-11 07:00N 26°10' W 079°50'815.9
2017-Nov-11 06:30N 26°02' W 079°51'815.7
2017-Nov-11 06:00N 25°55' W 079°53'815.7
2017-Nov-11 05:30N 25°47' W 079°54'815.9
2017-Nov-11 05:01N 25°39' W 079°55'816.2
2017-Nov-11 04:30N 25°31' W 079°57'816.9
2017-Nov-11 04:00N 25°23' W 079°58'816.1
2017-Nov-11 03:30N 25°14' W 079°60'815.7
2017-Nov-11 02:59N 25°07' W 080°02'815.7
2017-Nov-11 02:29N 25°00' W 080°07'816.3
2017-Nov-11 01:59N 24°54' W 080°13'816.5
2017-Nov-11 01:30N 24°48' W 080°18'5015.7
2017-Nov-10 22:19N 24°21' W 081°04'616.1
2017-Nov-10 21:58N 24°19' W 081°10'  
Track history (hours):
 
Tides and Currents Weather Stations Pressure Air Temp Water Temp Dewpoint Dewpoint Depression Visibility Wind Speed Wind Dir Waves Ship Positions

Lone Star State

Owner: Crowley Petroleum Services, Inc., Jacksonville, FL. More information available from US FCC via Universal Licensing System and Coast Guard Vessel Documentation Center.

Last reported at 2017-Nov-17 14:14 UTC. Time now 2017-Nov-20 17:11 UTC.
Position N 29°34' W 093°42'.

Length 186 m; draft 8.8 m.

Type: Tanker. MMSI: 367633000.

Date/timePositionNaut miles runAvg speedWind from/ knotsBaromVisibWave heightAir tempDewpointWater temp
2017-Nov-17 14:14N 29°34' W 093°42'  
2017-Nov-14 22:45N 25°13' W 080°03'512.7
2017-Nov-14 22:22N 25°18' W 080°02'412.6
2017-Nov-14 22:00N 25°23' W 080°01'713.0
2017-Nov-14 21:30N 25°29' W 080°01'612.9
2017-Nov-14 21:00N 25°36' W 080°00'612.6
2017-Nov-14 20:30N 25°42' W 080°01'612.5
2017-Nov-14 20:00N 25°48' W 080°01'612.8
2017-Nov-14 19:30N 25°55' W 080°01'612.6
2017-Nov-14 19:00N 26°01' W 080°01'612.8
2017-Nov-14 18:30N 26°07' W 080°00'713.7
2017-Nov-14 18:00N 26°14' W 079°59'713.8
2017-Nov-14 17:30N 26°21' W 079°59'713.4
2017-Nov-14 17:01N 26°28' W 079°58'713.7
2017-Nov-14 16:31N 26°34' W 079°57'714.9
2017-Nov-14 16:00N 26°42' W 079°56'714.5
2017-Nov-14 15:30N 26°49' W 079°55'612.9
2017-Nov-14 15:00N 26°55' W 079°55'612.9
2017-Nov-14 14:30N 27°02' W 079°54'  
2017-Nov-11 07:39N 26°20' W 079°49'215.7
2017-Nov-11 07:30N 26°18' W 079°49'815.7
2017-Nov-11 07:00N 26°10' W 079°50'815.9
2017-Nov-11 06:30N 26°02' W 079°51'815.7
2017-Nov-11 06:00N 25°55' W 079°53'815.7
2017-Nov-11 05:30N 25°47' W 079°54'815.9
2017-Nov-11 05:01N 25°39' W 079°55'816.2
2017-Nov-11 04:30N 25°31' W 079°57'816.9
2017-Nov-11 04:00N 25°23' W 079°58'816.1
2017-Nov-11 03:30N 25°14' W 079°60'815.7
2017-Nov-11 02:59N 25°07' W 080°02'815.7
2017-Nov-11 02:29N 25°00' W 080°07'816.3
2017-Nov-11 01:59N 24°54' W 080°13'816.5
2017-Nov-11 01:30N 24°48' W 080°18'5015.7
2017-Nov-10 22:19N 24°21' W 081°04'616.1
2017-Nov-10 21:58N 24°19' W 081°10'  

Dump ship's entire track history